sensor_id;sensor_type;location;lat;lon;timestamp;P1;durP1;ratioP1;P2;durP2;ratioP2
13973;SDS011;7060;43.770;4.008;2022-08-04T00:01:06;5.83;;;3.70;;
13973;SDS011;7060;43.770;4.008;2022-08-04T00:03:40;4.53;;;4.10;;
13973;SDS011;7060;43.770;4.008;2022-08-04T00:06:13;7.57;;;4.20;;
13973;SDS011;7060;43.770;4.008;2022-08-04T00:08:53;4.07;;;3.77;;
13973;SDS011;7060;43.770;4.008;2022-08-04T00:11:27;5.83;;;4.60;;
13973;SDS011;7060;43.770;4.008;2022-08-04T00:14:00;4.70;;;4.00;;
13973;SDS011;7060;43.770;4.008;2022-08-04T00:16:35;6.67;;;4.07;;
13973;SDS011;7060;43.770;4.008;2022-08-04T00:19:07;5.67;;;3.80;;
13973;SDS011;7060;43.770;4.008;2022-08-04T00:21:41;4.10;;;3.70;;
13973;SDS011;7060;43.770;4.008;2022-08-04T00:24:15;7.87;;;4.43;;
13973;SDS011;7060;43.770;4.008;2022-08-04T00:26:46;5.30;;;3.90;;
13973;SDS011;7060;43.770;4.008;2022-08-04T00:29:15;5.40;;;3.90;;
13973;SDS011;7060;43.770;4.008;2022-08-04T00:31:44;5.23;;;4.13;;
13973;SDS011;7060;43.770;4.008;2022-08-04T00:34:23;4.93;;;4.53;;
13973;SDS011;7060;43.770;4.008;2022-08-04T00:36:54;5.53;;;4.70;;
13973;SDS011;7060;43.770;4.008;2022-08-04T00:39:25;4.77;;;4.17;;
13973;SDS011;7060;43.770;4.008;2022-08-04T00:44:58;6.10;;;3.87;;
13973;SDS011;7060;43.770;4.008;2022-08-04T00:47:57;6.60;;;4.17;;
13973;SDS011;7060;43.770;4.008;2022-08-04T00:50:41;5.37;;;4.70;;
13973;SDS011;7060;43.770;4.008;2022-08-04T00:53:13;6.73;;;3.80;;
13973;SDS011;7060;43.770;4.008;2022-08-04T00:58:53;4.27;;;3.90;;
13973;SDS011;7060;43.770;4.008;2022-08-04T01:01:39;4.70;;;4.20;;
13973;SDS011;7060;43.770;4.008;2022-08-04T01:04:15;4.77;;;4.30;;
13973;SDS011;7060;43.770;4.008;2022-08-04T01:06:58;5.37;;;4.40;;
13973;SDS011;7060;43.770;4.008;2022-08-04T01:09:40;5.87;;;4.47;;
13973;SDS011;7060;43.770;4.008;2022-08-04T01:12:30;5.20;;;4.30;;
13973;SDS011;7060;43.770;4.008;2022-08-04T01:15:21;4.90;;;4.40;;
13973;SDS011;7060;43.770;4.008;2022-08-04T01:18:21;9.17;;;5.40;;
13973;SDS011;7060;43.770;4.008;2022-08-04T01:20:59;5.60;;;5.10;;
13973;SDS011;7060;43.770;4.008;2022-08-04T01:23:58;7.50;;;5.10;;
13973;SDS011;7060;43.770;4.008;2022-08-04T01:26:47;5.33;;;4.83;;
13973;SDS011;7060;43.770;4.008;2022-08-04T01:29:27;4.73;;;4.33;;
13973;SDS011;7060;43.770;4.008;2022-08-04T01:32:18;4.60;;;3.83;;
13973;SDS011;7060;43.770;4.008;2022-08-04T01:34:54;3.77;;;3.40;;
13973;SDS011;7060;43.770;4.008;2022-08-04T01:40:44;4.97;;;4.17;;
13973;SDS011;7060;43.770;4.008;2022-08-04T01:43:14;5.10;;;4.33;;
13973;SDS011;7060;43.770;4.008;2022-08-04T01:45:45;7.13;;;4.40;;
13973;SDS011;7060;43.770;4.008;2022-08-04T01:48:22;4.87;;;3.53;;
13973;SDS011;7060;43.770;4.008;2022-08-04T01:50:52;6.20;;;4.57;;
13973;SDS011;7060;43.770;4.008;2022-08-04T01:53:28;4.90;;;4.03;;
13973;SDS011;7060;43.770;4.008;2022-08-04T01:55:58;4.77;;;3.93;;
13973;SDS011;7060;43.770;4.008;2022-08-04T01:58:30;4.73;;;3.70;;
13973;SDS011;7060;43.770;4.008;2022-08-04T02:01:02;4.60;;;4.03;;
13973;SDS011;7060;43.770;4.008;2022-08-04T02:03:35;4.63;;;4.23;;
13973;SDS011;7060;43.770;4.008;2022-08-04T02:06:28;6.10;;;4.43;;
13973;SDS011;7060;43.770;4.008;2022-08-04T02:09:02;4.43;;;4.13;;
13973;SDS011;7060;43.770;4.008;2022-08-04T02:11:55;5.57;;;4.33;;
13973;SDS011;7060;43.770;4.008;2022-08-04T02:14:31;4.57;;;4.10;;
13973;SDS011;7060;43.770;4.008;2022-08-04T02:17:12;4.53;;;4.10;;
13973;SDS011;7060;43.770;4.008;2022-08-04T02:19:49;6.27;;;4.53;;
13973;SDS011;7060;43.770;4.008;2022-08-04T02:22:28;6.60;;;5.13;;
13973;SDS011;7060;43.770;4.008;2022-08-04T02:25:03;6.43;;;5.83;;
13973;SDS011;7060;43.770;4.008;2022-08-04T02:27:42;5.13;;;4.50;;
13973;SDS011;7060;43.770;4.008;2022-08-04T02:30:28;8.10;;;7.30;;
13973;SDS011;7060;43.770;4.008;2022-08-04T02:33:02;7.63;;;6.93;;
13973;SDS011;7060;43.770;4.008;2022-08-04T02:35:35;8.17;;;7.00;;
13973;SDS011;7060;43.770;4.008;2022-08-04T02:38:11;9.30;;;7.10;;
13973;SDS011;7060;43.770;4.008;2022-08-04T02:40:52;9.03;;;7.23;;
13973;SDS011;7060;43.770;4.008;2022-08-04T02:43:26;11.83;;;7.70;;
13973;SDS011;7060;43.770;4.008;2022-08-04T02:46:17;10.17;;;8.63;;
13973;SDS011;7060;43.770;4.008;2022-08-04T02:48:49;10.47;;;7.97;;
13973;SDS011;7060;43.770;4.008;2022-08-04T02:51:23;9.47;;;8.53;;
13973;SDS011;7060;43.770;4.008;2022-08-04T02:53:55;9.50;;;8.50;;
13973;SDS011;7060;43.770;4.008;2022-08-04T02:56:26;10.63;;;9.63;;
13973;SDS011;7060;43.770;4.008;2022-08-04T02:58:58;10.80;;;8.63;;
13973;SDS011;7060;43.770;4.008;2022-08-04T03:01:29;10.43;;;9.00;;
13973;SDS011;7060;43.770;4.008;2022-08-04T03:04:12;9.20;;;8.33;;
13973;SDS011;7060;43.770;4.008;2022-08-04T03:10:20;10.13;;;9.13;;
13973;SDS011;7060;43.770;4.008;2022-08-04T03:13:20;10.23;;;9.23;;
13973;SDS011;7060;43.770;4.008;2022-08-04T03:25:36;12.87;;;11.47;;
13973;SDS011;7060;43.770;4.008;2022-08-04T03:34:39;12.93;;;11.60;;
13973;SDS011;7060;43.770;4.008;2022-08-04T03:37:32;13.97;;;11.67;;
13973;SDS011;7060;43.770;4.008;2022-08-04T03:40:22;12.27;;;10.77;;
13973;SDS011;7060;43.770;4.008;2022-08-04T03:49:30;11.20;;;10.03;;
13973;SDS011;7060;43.770;4.008;2022-08-04T03:52:28;12.07;;;10.33;;
13973;SDS011;7060;43.770;4.008;2022-08-04T03:55:42;10.73;;;9.17;;
13973;SDS011;7060;43.770;4.008;2022-08-04T04:07:35;9.40;;;8.60;;
13973;SDS011;7060;43.770;4.008;2022-08-04T04:10:37;10.30;;;9.27;;
13973;SDS011;7060;43.770;4.008;2022-08-04T04:13:23;11.00;;;8.47;;
13973;SDS011;7060;43.770;4.008;2022-08-04T04:16:07;9.67;;;8.67;;
13973;SDS011;7060;43.770;4.008;2022-08-04T04:22:11;10.97;;;8.63;;
13973;SDS011;7060;43.770;4.008;2022-08-04T04:25:03;9.67;;;8.27;;
13973;SDS011;7060;43.770;4.008;2022-08-04T04:27:45;10.43;;;9.20;;
13973;SDS011;7060;43.770;4.008;2022-08-04T04:30:46;9.13;;;7.90;;
13973;SDS011;7060;43.770;4.008;2022-08-04T04:33:36;7.90;;;7.10;;
13973;SDS011;7060;43.770;4.008;2022-08-04T04:36:12;8.90;;;8.00;;
13973;SDS011;7060;43.770;4.008;2022-08-04T04:41:53;9.20;;;7.63;;
13973;SDS011;7060;43.770;4.008;2022-08-04T04:44:37;7.43;;;6.77;;
13973;SDS011;7060;43.770;4.008;2022-08-04T04:47:29;9.23;;;8.30;;
13973;SDS011;7060;43.770;4.008;2022-08-04T04:50:31;8.17;;;7.23;;
13973;SDS011;7060;43.770;4.008;2022-08-04T04:53:10;7.93;;;7.23;;
13973;SDS011;7060;43.770;4.008;2022-08-04T04:55:55;8.27;;;7.40;;
13973;SDS011;7060;43.770;4.008;2022-08-04T04:58:31;9.37;;;7.47;;
13973;SDS011;7060;43.770;4.008;2022-08-04T05:01:07;7.90;;;7.20;;
13973;SDS011;7060;43.770;4.008;2022-08-04T05:03:59;10.63;;;7.53;;
13973;SDS011;7060;43.770;4.008;2022-08-04T05:06:44;8.30;;;7.50;;
13973;SDS011;7060;43.770;4.008;2022-08-04T05:09:27;9.57;;;7.57;;
13973;SDS011;7060;43.770;4.008;2022-08-04T05:12:17;10.03;;;9.10;;
13973;SDS011;7060;43.770;4.008;2022-08-04T05:15:30;9.07;;;8.27;;
13973;SDS011;7060;43.770;4.008;2022-08-04T05:18:03;9.23;;;8.33;;
13973;SDS011;7060;43.770;4.008;2022-08-04T05:20:37;13.47;;;9.17;;
13973;SDS011;7060;43.770;4.008;2022-08-04T05:23:10;11.30;;;10.20;;
13973;SDS011;7060;43.770;4.008;2022-08-04T05:25:45;10.17;;;9.23;;
13973;SDS011;7060;43.770;4.008;2022-08-04T05:28:27;12.17;;;9.73;;
13973;SDS011;7060;43.770;4.008;2022-08-04T05:31:01;10.40;;;9.03;;
13973;SDS011;7060;43.770;4.008;2022-08-04T05:33:44;8.80;;;8.00;;
13973;SDS011;7060;43.770;4.008;2022-08-04T05:36:17;10.30;;;8.10;;
13973;SDS011;7060;43.770;4.008;2022-08-04T05:39:06;9.23;;;8.30;;
13973;SDS011;7060;43.770;4.008;2022-08-04T05:41:39;9.17;;;8.33;;
13973;SDS011;7060;43.770;4.008;2022-08-04T05:44:15;9.67;;;8.43;;
13973;SDS011;7060;43.770;4.008;2022-08-04T05:46:48;8.30;;;7.60;;
13973;SDS011;7060;43.770;4.008;2022-08-04T05:49:20;7.97;;;7.20;;
13973;SDS011;7060;43.770;4.008;2022-08-04T05:51:50;7.90;;;7.03;;
13973;SDS011;7060;43.770;4.008;2022-08-04T05:54:19;7.65;;;6.80;;
13973;SDS011;7060;43.770;4.008;2022-08-04T05:56:49;8.25;;;6.35;;
13973;SDS011;7060;43.770;4.008;2022-08-04T05:59:20;8.35;;;7.43;;
13973;SDS011;7060;43.770;4.008;2022-08-04T06:01:52;7.38;;;6.65;;
13973;SDS011;7060;43.770;4.008;2022-08-04T06:04:25;10.57;;;7.20;;
13973;SDS011;7060;43.770;4.008;2022-08-04T06:06:58;7.72;;;6.93;;
13973;SDS011;7060;43.770;4.008;2022-08-04T06:09:27;6.82;;;6.20;;
13973;SDS011;7060;43.770;4.008;2022-08-04T06:11:58;10.68;;;6.57;;
13973;SDS011;7060;43.770;4.008;2022-08-04T06:14:34;9.20;;;6.15;;
13973;SDS011;7060;43.770;4.008;2022-08-04T06:17:07;6.90;;;6.20;;
13973;SDS011;7060;43.770;4.008;2022-08-04T06:19:58;6.10;;;5.55;;
13973;SDS011;7060;43.770;4.008;2022-08-04T06:22:49;8.65;;;5.32;;
13973;SDS011;7060;43.770;4.008;2022-08-04T06:25:21;6.70;;;5.43;;
13973;SDS011;7060;43.770;4.008;2022-08-04T06:27:52;11.10;;;5.60;;
13973;SDS011;7060;43.770;4.008;2022-08-04T06:30:25;6.82;;;5.38;;
13973;SDS011;7060;43.770;4.008;2022-08-04T06:32:55;6.47;;;5.60;;
13973;SDS011;7060;43.770;4.008;2022-08-04T06:35:30;4.93;;;4.47;;
13973;SDS011;7060;43.770;4.008;2022-08-04T06:38:00;6.30;;;5.80;;
13973;SDS011;7060;43.770;4.008;2022-08-04T06:40:30;6.25;;;5.65;;
13973;SDS011;7060;43.770;4.008;2022-08-04T06:43:01;6.32;;;5.80;;
13973;SDS011;7060;43.770;4.008;2022-08-04T06:45:36;6.28;;;5.32;;
13973;SDS011;7060;43.770;4.008;2022-08-04T06:48:10;6.55;;;5.95;;
13973;SDS011;7060;43.770;4.008;2022-08-04T06:50:40;6.57;;;5.97;;
13973;SDS011;7060;43.770;4.008;2022-08-04T06:53:31;5.75;;;5.30;;
13973;SDS011;7060;43.770;4.008;2022-08-04T06:56:00;6.63;;;6.03;;
13973;SDS011;7060;43.770;4.008;2022-08-04T06:58:29;6.65;;;5.25;;
13973;SDS011;7060;43.770;4.008;2022-08-04T07:01:01;9.35;;;6.25;;
13973;SDS011;7060;43.770;4.008;2022-08-04T07:03:30;5.78;;;5.20;;
13973;SDS011;7060;43.770;4.008;2022-08-04T07:06:00;12.48;;;5.93;;
13973;SDS011;7060;43.770;4.008;2022-08-04T07:08:33;7.63;;;5.38;;
13973;SDS011;7060;43.770;4.008;2022-08-04T07:11:03;6.15;;;5.55;;
13973;SDS011;7060;43.770;4.008;2022-08-04T07:13:33;6.15;;;5.47;;
13973;SDS011;7060;43.770;4.008;2022-08-04T07:16:10;4.93;;;4.43;;
13973;SDS011;7060;43.770;4.008;2022-08-04T07:18:41;6.15;;;5.60;;
13973;SDS011;7060;43.770;4.008;2022-08-04T07:21:10;6.82;;;4.93;;
13973;SDS011;7060;43.770;4.008;2022-08-04T07:23:51;5.72;;;5.10;;
13973;SDS011;7060;43.770;4.008;2022-08-04T07:26:25;6.40;;;4.90;;
13973;SDS011;7060;43.770;4.008;2022-08-04T07:28:55;6.25;;;5.63;;
13973;SDS011;7060;43.770;4.008;2022-08-04T07:31:27;5.07;;;4.68;;
13973;SDS011;7060;43.770;4.008;2022-08-04T07:34:02;4.72;;;4.38;;
13973;SDS011;7060;43.770;4.008;2022-08-04T07:36:47;6.93;;;4.43;;
13973;SDS011;7060;43.770;4.008;2022-08-04T07:39:22;4.53;;;4.20;;
13973;SDS011;7060;43.770;4.008;2022-08-04T07:41:55;4.68;;;4.22;;
13973;SDS011;7060;43.770;4.008;2022-08-04T07:44:28;4.32;;;3.92;;
13973;SDS011;7060;43.770;4.008;2022-08-04T07:47:00;6.22;;;4.05;;
13973;SDS011;7060;43.770;4.008;2022-08-04T07:49:29;4.82;;;4.10;;
13973;SDS011;7060;43.770;4.008;2022-08-04T07:52:19;4.15;;;3.85;;
13973;SDS011;7060;43.770;4.008;2022-08-04T07:54:48;4.30;;;3.90;;
13973;SDS011;7060;43.770;4.008;2022-08-04T07:57:19;6.88;;;4.07;;
13973;SDS011;7060;43.770;4.008;2022-08-04T08:00:08;3.47;;;3.25;;
13973;SDS011;7060;43.770;4.008;2022-08-04T08:02:39;3.75;;;3.45;;
13973;SDS011;7060;43.770;4.008;2022-08-04T08:05:09;3.40;;;3.10;;
13973;SDS011;7060;43.770;4.008;2022-08-04T08:07:40;4.75;;;3.70;;
13973;SDS011;7060;43.770;4.008;2022-08-04T08:10:19;5.72;;;3.50;;
13973;SDS011;7060;43.770;4.008;2022-08-04T08:12:48;4.43;;;4.05;;
13973;SDS011;7060;43.770;4.008;2022-08-04T08:15:19;5.47;;;3.85;;
13973;SDS011;7060;43.770;4.008;2022-08-04T08:17:50;3.63;;;2.95;;
13973;SDS011;7060;43.770;4.008;2022-08-04T08:20:26;4.68;;;3.63;;
13973;SDS011;7060;43.770;4.008;2022-08-04T08:22:57;3.63;;;3.33;;
13973;SDS011;7060;43.770;4.008;2022-08-04T08:25:26;3.25;;;3.05;;
13973;SDS011;7060;43.770;4.008;2022-08-04T08:27:57;5.95;;;3.22;;
13973;SDS011;7060;43.770;4.008;2022-08-04T08:30:26;4.00;;;3.40;;
13973;SDS011;7060;43.770;4.008;2022-08-04T08:33:00;4.25;;;3.47;;
13973;SDS011;7060;43.770;4.008;2022-08-04T08:35:33;3.38;;;2.60;;
13973;SDS011;7060;43.770;4.008;2022-08-04T08:38:20;3.10;;;2.70;;
13973;SDS011;7060;43.770;4.008;2022-08-04T08:40:57;3.65;;;2.97;;
13973;SDS011;7060;43.770;4.008;2022-08-04T08:43:54;5.30;;;3.70;;
13973;SDS011;7060;43.770;4.008;2022-08-04T08:47:06;3.65;;;3.25;;
13973;SDS011;7060;43.770;4.008;2022-08-04T08:49:48;7.13;;;4.13;;
13973;SDS011;7060;43.770;4.008;2022-08-04T08:52:33;7.00;;;3.97;;
13973;SDS011;7060;43.770;4.008;2022-08-04T08:55:30;3.80;;;3.45;;
13973;SDS011;7060;43.770;4.008;2022-08-04T08:58:16;3.40;;;3.10;;
13973;SDS011;7060;43.770;4.008;2022-08-04T09:01:02;3.40;;;3.10;;
13973;SDS011;7060;43.770;4.008;2022-08-04T09:03:48;3.67;;;3.28;;
13973;SDS011;7060;43.770;4.008;2022-08-04T09:06:49;4.93;;;3.80;;
13973;SDS011;7060;43.770;4.008;2022-08-04T09:09:41;3.22;;;2.97;;
13973;SDS011;7060;43.770;4.008;2022-08-04T09:12:23;4.10;;;3.75;;
13973;SDS011;7060;43.770;4.008;2022-08-04T09:15:00;4.03;;;3.63;;
13973;SDS011;7060;43.770;4.008;2022-08-04T09:17:34;3.50;;;3.15;;
13973;SDS011;7060;43.770;4.008;2022-08-04T09:20:11;4.00;;;3.58;;
13973;SDS011;7060;43.770;4.008;2022-08-04T09:22:47;4.00;;;3.20;;
13973;SDS011;7060;43.770;4.008;2022-08-04T09:25:19;3.13;;;2.83;;
13973;SDS011;7060;43.770;4.008;2022-08-04T09:27:53;4.40;;;3.55;;
13973;SDS011;7060;43.770;4.008;2022-08-04T09:30:37;3.47;;;2.83;;
13973;SDS011;7060;43.770;4.008;2022-08-04T09:33:11;3.50;;;3.20;;
13973;SDS011;7060;43.770;4.008;2022-08-04T09:36:12;3.92;;;2.75;;
13973;SDS011;7060;43.770;4.008;2022-08-04T09:39:02;3.38;;;3.05;;
13973;SDS011;7060;43.770;4.008;2022-08-04T09:41:40;2.63;;;2.25;;
13973;SDS011;7060;43.770;4.008;2022-08-04T09:44:22;3.30;;;2.33;;
13973;SDS011;7060;43.770;4.008;2022-08-04T09:47:19;3.58;;;2.70;;
13973;SDS011;7060;43.770;4.008;2022-08-04T09:50:16;3.80;;;2.72;;
13973;SDS011;7060;43.770;4.008;2022-08-04T09:52:59;4.00;;;3.20;;
13973;SDS011;7060;43.770;4.008;2022-08-04T09:55:39;4.68;;;2.13;;
13973;SDS011;7060;43.770;4.008;2022-08-04T09:58:26;8.00;;;2.55;;
13973;SDS011;7060;43.770;4.008;2022-08-04T10:01:16;4.68;;;2.50;;
13973;SDS011;7060;43.770;4.008;2022-08-04T10:03:51;3.15;;;2.80;;
13973;SDS011;7060;43.770;4.008;2022-08-04T10:09:46;3.42;;;2.90;;
13973;SDS011;7060;43.770;4.008;2022-08-04T10:12:30;2.80;;;2.50;;
13973;SDS011;7060;43.770;4.008;2022-08-04T10:15:09;3.38;;;1.98;;
13973;SDS011;7060;43.770;4.008;2022-08-04T10:17:47;2.95;;;2.53;;
13973;SDS011;7060;43.770;4.008;2022-08-04T10:20:34;3.95;;;2.80;;
13973;SDS011;7060;43.770;4.008;2022-08-04T10:23:24;5.60;;;2.70;;
13973;SDS011;7060;43.770;4.008;2022-08-04T10:26:24;2.58;;;2.38;;
13973;SDS011;7060;43.770;4.008;2022-08-04T10:29:01;2.92;;;2.03;;
13973;SDS011;7060;43.770;4.008;2022-08-04T10:31:33;3.88;;;2.45;;
13973;SDS011;7060;43.770;4.008;2022-08-04T10:34:08;2.20;;;2.00;;
13973;SDS011;7060;43.770;4.008;2022-08-04T10:36:43;3.97;;;1.92;;
13973;SDS011;7060;43.770;4.008;2022-08-04T10:39:19;3.55;;;2.25;;
13973;SDS011;7060;43.770;4.008;2022-08-04T10:42:11;5.97;;;2.97;;
13973;SDS011;7060;43.770;4.008;2022-08-04T10:44:59;3.28;;;2.97;;
13973;SDS011;7060;43.770;4.008;2022-08-04T10:47:41;3.40;;;3.10;;
13973;SDS011;7060;43.770;4.008;2022-08-04T10:50:19;4.43;;;3.63;;
13973;SDS011;7060;43.770;4.008;2022-08-04T10:52:54;4.53;;;2.78;;
13973;SDS011;7060;43.770;4.008;2022-08-04T10:55:30;4.57;;;2.65;;
13973;SDS011;7060;43.770;4.008;2022-08-04T10:58:24;4.10;;;3.00;;
13973;SDS011;7060;43.770;4.008;2022-08-04T11:01:18;18.10;;;4.20;;
13973;SDS011;7060;43.770;4.008;2022-08-04T11:04:14;3.08;;;2.15;;
13973;SDS011;7060;43.770;4.008;2022-08-04T11:06:54;7.05;;;2.55;;
13973;SDS011;7060;43.770;4.008;2022-08-04T11:09:26;2.80;;;2.50;;
13973;SDS011;7060;43.770;4.008;2022-08-04T11:11:59;3.17;;;2.90;;
13973;SDS011;7060;43.770;4.008;2022-08-04T11:14:36;3.20;;;2.90;;
13973;SDS011;7060;43.770;4.008;2022-08-04T11:17:14;4.93;;;3.08;;
13973;SDS011;7060;43.770;4.008;2022-08-04T11:19:51;7.43;;;3.60;;
13973;SDS011;7060;43.770;4.008;2022-08-04T11:22:58;3.40;;;3.10;;
13973;SDS011;7060;43.770;4.008;2022-08-04T11:25:35;2.42;;;2.20;;
13973;SDS011;7060;43.770;4.008;2022-08-04T11:28:19;2.85;;;2.33;;
13973;SDS011;7060;43.770;4.008;2022-08-04T11:31:00;2.67;;;2.00;;
13973;SDS011;7060;43.770;4.008;2022-08-04T11:33:35;2.53;;;2.33;;
13973;SDS011;7060;43.770;4.008;2022-08-04T11:36:13;2.28;;;2.08;;
13973;SDS011;7060;43.770;4.008;2022-08-04T11:38:49;2.50;;;2.30;;
13973;SDS011;7060;43.770;4.008;2022-08-04T11:41:32;2.50;;;2.30;;
13973;SDS011;7060;43.770;4.008;2022-08-04T11:44:11;2.60;;;2.10;;
13973;SDS011;7060;43.770;4.008;2022-08-04T11:46:46;2.42;;;1.95;;
13973;SDS011;7060;43.770;4.008;2022-08-04T11:49:25;1.73;;;1.63;;
13973;SDS011;7060;43.770;4.008;2022-08-04T11:52:19;2.10;;;1.90;;
13973;SDS011;7060;43.770;4.008;2022-08-04T11:54:51;2.85;;;2.63;;
13973;SDS011;7060;43.770;4.008;2022-08-04T11:57:21;4.85;;;2.50;;
13973;SDS011;7060;43.770;4.008;2022-08-04T12:00:04;2.85;;;2.65;;
13973;SDS011;7060;43.770;4.008;2022-08-04T12:02:40;4.50;;;2.88;;
13973;SDS011;7060;43.770;4.008;2022-08-04T12:05:26;3.05;;;2.72;;
13973;SDS011;7060;43.770;4.008;2022-08-04T12:08:10;3.33;;;2.72;;
13973;SDS011;7060;43.770;4.008;2022-08-04T12:10:53;3.55;;;3.08;;
13973;SDS011;7060;43.770;4.008;2022-08-04T12:13:34;4.90;;;2.70;;
13973;SDS011;7060;43.770;4.008;2022-08-04T12:16:11;2.60;;;2.30;;
13973;SDS011;7060;43.770;4.008;2022-08-04T12:18:46;3.63;;;2.40;;
13973;SDS011;7060;43.770;4.008;2022-08-04T12:21:24;3.28;;;2.42;;
13973;SDS011;7060;43.770;4.008;2022-08-04T12:24:00;3.50;;;1.98;;
13973;SDS011;7060;43.770;4.008;2022-08-04T12:26:36;3.95;;;2.60;;
13973;SDS011;7060;43.770;4.008;2022-08-04T12:29:10;2.58;;;2.38;;
13973;SDS011;7060;43.770;4.008;2022-08-04T12:31:43;4.25;;;2.38;;
13973;SDS011;7060;43.770;4.008;2022-08-04T12:34:17;2.83;;;2.05;;
13973;SDS011;7060;43.770;4.008;2022-08-04T12:37:01;2.08;;;1.88;;
13973;SDS011;7060;43.770;4.008;2022-08-04T12:39:32;2.03;;;1.85;;
13973;SDS011;7060;43.770;4.008;2022-08-04T12:42:25;2.50;;;2.30;;
13973;SDS011;7060;43.770;4.008;2022-08-04T12:45:02;4.75;;;2.60;;
13973;SDS011;7060;43.770;4.008;2022-08-04T12:47:34;5.72;;;2.90;;
13973;SDS011;7060;43.770;4.008;2022-08-04T12:50:05;3.08;;;2.08;;
13973;SDS011;7060;43.770;4.008;2022-08-04T12:52:45;4.45;;;2.45;;
13973;SDS011;7060;43.770;4.008;2022-08-04T12:55:32;2.78;;;2.45;;
13973;SDS011;7060;43.770;4.008;2022-08-04T12:58:10;4.10;;;2.45;;
13973;SDS011;7060;43.770;4.008;2022-08-04T13:01:04;2.90;;;2.45;;
13973;SDS011;7060;43.770;4.008;2022-08-04T13:03:56;3.58;;;2.75;;
13973;SDS011;7060;43.770;4.008;2022-08-04T13:06:29;2.53;;;2.28;;
13973;SDS011;7060;43.770;4.008;2022-08-04T13:09:03;3.88;;;3.05;;
13973;SDS011;7060;43.770;4.008;2022-08-04T13:11:36;3.08;;;2.78;;
13973;SDS011;7060;43.770;4.008;2022-08-04T13:14:10;3.20;;;2.90;;
13973;SDS011;7060;43.770;4.008;2022-08-04T13:16:55;3.53;;;3.22;;
13973;SDS011;7060;43.770;4.008;2022-08-04T13:19:25;2.70;;;2.50;;
13973;SDS011;7060;43.770;4.008;2022-08-04T13:21:55;2.90;;;2.33;;
13973;SDS011;7060;43.770;4.008;2022-08-04T13:24:30;2.53;;;2.03;;
13973;SDS011;7060;43.770;4.008;2022-08-04T13:27:21;2.17;;;1.95;;
13973;SDS011;7060;43.770;4.008;2022-08-04T13:29:51;2.15;;;1.92;;
13973;SDS011;7060;43.770;4.008;2022-08-04T13:32:29;1.73;;;1.63;;
13973;SDS011;7060;43.770;4.008;2022-08-04T13:35:00;2.00;;;1.85;;
13973;SDS011;7060;43.770;4.008;2022-08-04T13:37:32;1.80;;;1.70;;
13973;SDS011;7060;43.770;4.008;2022-08-04T13:40:08;3.45;;;2.20;;
13973;SDS011;7060;43.770;4.008;2022-08-04T13:42:40;2.08;;;1.90;;
13973;SDS011;7060;43.770;4.008;2022-08-04T13:45:14;2.60;;;1.83;;
13973;SDS011;7060;43.770;4.008;2022-08-04T13:47:47;4.15;;;1.60;;
13973;SDS011;7060;43.770;4.008;2022-08-04T13:50:19;1.75;;;1.65;;
13973;SDS011;7060;43.770;4.008;2022-08-04T13:52:52;1.75;;;1.65;;
13973;SDS011;7060;43.770;4.008;2022-08-04T13:55:25;2.15;;;1.55;;
13973;SDS011;7060;43.770;4.008;2022-08-04T13:58:04;2.75;;;1.73;;
13973;SDS011;7060;43.770;4.008;2022-08-04T14:00:39;1.40;;;1.30;;
13973;SDS011;7060;43.770;4.008;2022-08-04T14:03:20;2.45;;;1.80;;
13973;SDS011;7060;43.770;4.008;2022-08-04T14:06:06;5.57;;;1.48;;
13973;SDS011;7060;43.770;4.008;2022-08-04T14:08:44;1.55;;;1.35;;
13973;SDS011;7060;43.770;4.008;2022-08-04T14:11:17;5.65;;;1.67;;
13973;SDS011;7060;43.770;4.008;2022-08-04T14:14:17;1.40;;;1.30;;
13973;SDS011;7060;43.770;4.008;2022-08-04T14:16:58;1.40;;;1.30;;
13973;SDS011;7060;43.770;4.008;2022-08-04T14:22:30;4.50;;;1.40;;
13973;SDS011;7060;43.770;4.008;2022-08-04T14:25:05;2.15;;;1.48;;
13973;SDS011;7060;43.770;4.008;2022-08-04T14:27:44;3.05;;;1.65;;
13973;SDS011;7060;43.770;4.008;2022-08-04T14:30:24;1.60;;;1.50;;
13973;SDS011;7060;43.770;4.008;2022-08-04T14:32:56;1.80;;;1.40;;
13973;SDS011;7060;43.770;4.008;2022-08-04T14:35:54;3.78;;;1.50;;
13973;SDS011;7060;43.770;4.008;2022-08-04T14:38:24;2.75;;;1.80;;
13973;SDS011;7060;43.770;4.008;2022-08-04T14:41:09;2.08;;;1.40;;
13973;SDS011;7060;43.770;4.008;2022-08-04T14:43:47;2.15;;;1.48;;
13973;SDS011;7060;43.770;4.008;2022-08-04T14:46:18;1.63;;;1.20;;
13973;SDS011;7060;43.770;4.008;2022-08-04T14:48:58;1.42;;;1.33;;
13973;SDS011;7060;43.770;4.008;2022-08-04T14:51:37;1.20;;;1.10;;
13973;SDS011;7060;43.770;4.008;2022-08-04T14:54:09;1.42;;;1.20;;
13973;SDS011;7060;43.770;4.008;2022-08-04T14:56:50;1.65;;;1.15;;
13973;SDS011;7060;43.770;4.008;2022-08-04T14:59:22;3.70;;;1.38;;
13973;SDS011;7060;43.770;4.008;2022-08-04T15:01:52;2.78;;;1.50;;
13973;SDS011;7060;43.770;4.008;2022-08-04T15:04:27;1.70;;;1.40;;
13973;SDS011;7060;43.770;4.008;2022-08-04T15:06:58;2.47;;;1.60;;
13973;SDS011;7060;43.770;4.008;2022-08-04T15:09:31;1.75;;;1.30;;
13973;SDS011;7060;43.770;4.008;2022-08-04T15:12:00;1.85;;;1.60;;
13973;SDS011;7060;43.770;4.008;2022-08-04T15:14:32;1.40;;;1.30;;
13973;SDS011;7060;43.770;4.008;2022-08-04T15:17:04;1.75;;;1.38;;
13973;SDS011;7060;43.770;4.008;2022-08-04T15:19:54;1.85;;;1.38;;
13973;SDS011;7060;43.770;4.008;2022-08-04T15:22:24;1.58;;;1.30;;
13973;SDS011;7060;43.770;4.008;2022-08-04T15:24:53;1.95;;;1.40;;
13973;SDS011;7060;43.770;4.008;2022-08-04T15:27:23;2.67;;;1.60;;
13973;SDS011;7060;43.770;4.008;2022-08-04T15:29:57;1.40;;;1.30;;
13973;SDS011;7060;43.770;4.008;2022-08-04T15:32:29;3.00;;;1.75;;
13973;SDS011;7060;43.770;4.008;2022-08-04T15:35:00;4.18;;;1.67;;
13973;SDS011;7060;43.770;4.008;2022-08-04T15:37:31;2.45;;;1.50;;
13973;SDS011;7060;43.770;4.008;2022-08-04T15:40:11;1.70;;;1.42;;
13973;SDS011;7060;43.770;4.008;2022-08-04T15:42:45;4.15;;;1.40;;
13973;SDS011;7060;43.770;4.008;2022-08-04T15:45:21;1.55;;;1.45;;
13973;SDS011;7060;43.770;4.008;2022-08-04T15:51:02;3.13;;;1.67;;
13973;SDS011;7060;43.770;4.008;2022-08-04T15:56:55;1.65;;;1.50;;
13973;SDS011;7060;43.770;4.008;2022-08-04T16:02:36;2.10;;;1.70;;
13973;SDS011;7060;43.770;4.008;2022-08-04T16:08:00;1.90;;;1.67;;
13973;SDS011;7060;43.770;4.008;2022-08-04T16:10:37;3.05;;;1.88;;
13973;SDS011;7060;43.770;4.008;2022-08-04T16:13:08;2.00;;;1.65;;
13973;SDS011;7060;43.770;4.008;2022-08-04T16:15:41;2.35;;;2.03;;
13973;SDS011;7060;43.770;4.008;2022-08-04T16:18:18;3.72;;;1.83;;
13973;SDS011;7060;43.770;4.008;2022-08-04T16:20:57;4.72;;;2.10;;
13973;SDS011;7060;43.770;4.008;2022-08-04T16:26:41;5.00;;;2.38;;
13973;SDS011;7060;43.770;4.008;2022-08-04T16:32:19;3.05;;;2.70;;
13973;SDS011;7060;43.770;4.008;2022-08-04T16:34:54;3.90;;;2.20;;
13973;SDS011;7060;43.770;4.008;2022-08-04T16:37:29;2.63;;;2.42;;
13973;SDS011;7060;43.770;4.008;2022-08-04T16:43:01;3.38;;;2.40;;
13973;SDS011;7060;43.770;4.008;2022-08-04T16:45:38;5.28;;;2.70;;
13973;SDS011;7060;43.770;4.008;2022-08-04T16:48:09;2.30;;;2.15;;
13973;SDS011;7060;43.770;4.008;2022-08-04T16:50:50;7.45;;;2.72;;
13973;SDS011;7060;43.770;4.008;2022-08-04T16:53:22;4.78;;;2.88;;
13973;SDS011;7060;43.770;4.008;2022-08-04T16:56:13;3.95;;;2.60;;
13973;SDS011;7060;43.770;4.008;2022-08-04T16:58:44;2.47;;;2.28;;
13973;SDS011;7060;43.770;4.008;2022-08-04T17:01:20;2.85;;;2.60;;
13973;SDS011;7060;43.770;4.008;2022-08-04T17:04:00;7.68;;;3.30;;
13973;SDS011;7060;43.770;4.008;2022-08-04T17:06:35;3.35;;;2.75;;
13973;SDS011;7060;43.770;4.008;2022-08-04T17:09:05;2.88;;;2.67;;
13973;SDS011;7060;43.770;4.008;2022-08-04T17:11:37;4.10;;;2.70;;
13973;SDS011;7060;43.770;4.008;2022-08-04T17:14:06;3.28;;;3.03;;
13973;SDS011;7060;43.770;4.008;2022-08-04T17:16:36;4.50;;;3.22;;
13973;SDS011;7060;43.770;4.008;2022-08-04T17:19:07;4.05;;;2.65;;
13973;SDS011;7060;43.770;4.008;2022-08-04T17:21:53;3.33;;;2.80;;
13973;SDS011;7060;43.770;4.008;2022-08-04T17:24:31;5.03;;;3.30;;
13973;SDS011;7060;43.770;4.008;2022-08-04T17:27:02;3.78;;;3.25;;